createdAt,value
2022-11-05T00:02:01.679Z,5
2022-11-05T00:04:03.889Z,4.5
2022-11-05T00:06:05.843Z,5.1
2022-11-05T00:08:07.962Z,5.2
2022-11-05T00:10:10.095Z,6.3
2022-11-05T00:12:12.183Z,6.7
2022-11-05T00:14:17.503Z,6.9
2022-11-05T00:16:19.621Z,8.3
2022-11-05T00:18:21.737Z,7.5
2022-11-05T00:20:23.821Z,7.6
2022-11-05T00:22:25.930Z,9.7
2022-11-05T00:24:28.023Z,9.3
2022-11-05T00:26:30.143Z,11.2
2022-11-05T00:28:35.473Z,10.3
2022-11-05T00:30:37.555Z,9.1
2022-11-05T00:32:39.670Z,9.9
2022-11-05T00:33:42.330Z,10.6
2022-11-05T00:35:44.402Z,8.4
2022-11-05T00:37:49.992Z,10.2
2022-11-05T00:39:48.584Z,10.3
2022-11-05T00:41:53.914Z,10
2022-11-05T00:43:56.019Z,10.2
2022-11-05T00:45:58.117Z,9.9
2022-11-05T00:48:00.201Z,10.2
2022-11-05T00:50:02.317Z,9.1
2022-11-05T00:52:04.364Z,10
2022-11-05T00:54:06.468Z,9.3
2022-11-05T00:56:11.912Z,11.7
2022-11-05T00:58:13.849Z,9.6
2022-11-05T01:00:15.948Z,10.8
2022-11-05T01:02:18.375Z,11
2022-11-05T01:04:20.096Z,10
2022-11-05T01:06:22.168Z,10.1
2022-11-05T01:08:24.235Z,9.9
2022-11-05T01:10:29.550Z,10.8
2022-11-05T01:12:31.643Z,11
2022-11-05T01:14:33.738Z,10.2
2022-11-05T01:16:35.817Z,10.9
2022-11-05T01:18:37.858Z,10.6
2022-11-05T01:20:39.969Z,10.2
2022-11-05T01:22:42.010Z,11
2022-11-05T01:24:47.329Z,10.2
2022-11-05T01:26:49.396Z,10.2
2022-11-05T01:28:51.535Z,10.7
2022-11-05T01:29:54.119Z,11.6
2022-11-05T01:31:56.175Z,11.3
2022-11-05T01:33:58.262Z,11.1
2022-11-05T01:36:00.314Z,10.8
2022-11-05T01:38:05.621Z,12.6
2022-11-05T01:40:07.692Z,11.6
2022-11-05T01:42:09.746Z,10.6
2022-11-05T01:44:11.807Z,12.8
2022-11-05T01:46:13.877Z,10.5
2022-11-05T01:48:15.958Z,11.8
2022-11-05T01:50:17.974Z,10.4
2022-11-05T01:52:23.277Z,12.8
2022-11-05T01:54:25.362Z,11.7
2022-11-05T01:56:27.404Z,10.9
2022-11-05T01:58:29.476Z,10.3
2022-11-05T02:00:31.517Z,10.5
2022-11-05T02:02:33.715Z,10.7
2022-11-05T02:04:35.669Z,10
2022-11-05T02:06:40.936Z,10.4
2022-11-05T02:08:42.990Z,10.4
2022-11-05T02:10:45.045Z,9.9
2022-11-05T02:12:47.096Z,10
2022-11-05T02:14:49.172Z,9.8
2022-11-05T02:16:51.207Z,9.6
2022-11-05T02:18:53.270Z,10.9
2022-11-05T02:20:58.554Z,9.3
2022-11-05T02:25:02.642Z,9.4
2022-11-05T02:26:05.316Z,9.9
2022-11-05T02:28:07.341Z,9.7
2022-11-05T02:30:09.398Z,10.5
2022-11-05T02:32:11.446Z,10.1
2022-11-05T02:34:16.727Z,9.4
2022-11-05T02:36:18.780Z,9.9
2022-11-05T02:38:20.801Z,9.5
2022-11-05T02:40:22.858Z,10.9
2022-11-05T02:42:24.906Z,10.4
2022-11-05T02:44:26.954Z,9.8
2022-11-05T02:46:29.001Z,9.7
2022-11-05T02:48:34.302Z,10.9
2022-11-05T02:50:36.315Z,10.6
2022-11-05T02:54:40.427Z,10.8
2022-11-05T02:56:42.462Z,10.6
2022-11-05T02:58:44.495Z,11
2022-11-05T03:00:46.553Z,9.4
2022-11-05T03:02:51.902Z,10.7
2022-11-05T03:04:53.867Z,10.7
2022-11-05T03:06:55.889Z,9.6
2022-11-05T03:08:57.950Z,10.5
2022-11-05T03:10:59.982Z,9
2022-11-05T03:13:02.056Z,9.3
2022-11-05T03:17:09.365Z,10.1
2022-11-05T03:19:11.384Z,7.4
2022-11-05T03:21:13.418Z,8.1
2022-11-05T03:23:42.292Z,9.2
2022-11-05T03:25:44.333Z,9.8
2022-11-05T03:27:46.375Z,7.6
2022-11-05T03:29:51.664Z,9.4
2022-11-05T03:31:53.690Z,9.3
2022-11-05T03:33:55.740Z,8.4
2022-11-05T03:35:57.770Z,8.2
2022-11-05T03:37:59.816Z,8.5
2022-11-05T03:40:01.891Z,8.7
2022-11-05T03:42:03.884Z,7.7
2022-11-05T03:44:09.150Z,8.3
2022-11-05T03:46:11.311Z,7.6
2022-11-05T03:48:13.282Z,8
2022-11-05T03:50:15.241Z,8.4
2022-11-05T03:52:17.315Z,8.5
2022-11-05T03:54:19.360Z,9
2022-11-05T03:56:21.390Z,8
2022-11-05T03:58:26.619Z,10.1
2022-11-05T04:00:28.662Z,9.6
2022-11-05T04:02:30.814Z,9.1
2022-11-05T04:04:32.770Z,9.8
2022-11-05T04:06:34.789Z,11.5
2022-11-05T04:08:36.821Z,10.5
2022-11-05T04:10:38.858Z,10.1
2022-11-05T04:12:44.142Z,9.7
2022-11-05T04:14:46.171Z,9.9
2022-11-05T04:23:56.959Z,10.8
2022-11-05T04:28:04.278Z,11.2
2022-11-05T04:30:06.309Z,9.9
2022-11-05T04:32:08.238Z,9.8
2022-11-05T04:34:10.253Z,11
2022-11-05T04:36:12.319Z,9.9
2022-11-05T04:38:14.348Z,11.6
2022-11-05T04:40:19.624Z,11.7
2022-11-05T04:42:21.650Z,11.3
2022-11-05T04:44:23.664Z,13.6
2022-11-05T04:46:25.710Z,12.9
2022-11-05T04:48:27.735Z,13.1
2022-11-05T04:52:31.787Z,11.8
2022-11-05T04:54:37.056Z,12.4
2022-11-05T04:56:39.091Z,12.2
2022-11-05T04:58:41.128Z,11.9
2022-11-05T05:00:43.229Z,13.5
2022-11-05T05:02:45.205Z,12.2
2022-11-05T05:04:47.241Z,13.2
2022-11-05T05:08:54.513Z,14.2
2022-11-05T05:10:56.554Z,14.4
2022-11-05T05:14:01.214Z,15.6
2022-11-05T05:16:03.257Z,15.3
2022-11-05T05:18:05.289Z,14.1
2022-11-05T05:20:07.317Z,14.8
2022-11-05T05:22:12.557Z,15.3
2022-11-05T05:24:14.624Z,14.9
2022-11-05T05:26:16.635Z,15.3
2022-11-05T05:32:22.713Z,16.1
2022-11-05T05:34:24.746Z,16.3
2022-11-05T05:36:30.012Z,16.3
2022-11-05T05:38:32.029Z,16
2022-11-05T05:40:34.056Z,14.9
2022-11-05T05:42:41.769Z,16.3
2022-11-05T05:44:38.109Z,15.7
2022-11-05T05:46:40.125Z,15.5
2022-11-05T05:48:42.141Z,16.3
2022-11-05T05:50:48.950Z,16.5
2022-11-05T05:52:50.973Z,14.8
2022-11-05T05:54:52.990Z,14.9
2022-11-05T05:56:55.011Z,15.6
2022-11-05T05:58:57.036Z,14.8
2022-11-05T06:00:59.053Z,15.3
2022-11-05T06:03:01.178Z,16.5
2022-11-05T06:05:06.394Z,16.1
2022-11-05T06:07:08.378Z,16.3
2022-11-05T06:09:10.391Z,16.3
2022-11-05T06:10:13.089Z,16.4
2022-11-05T06:12:15.042Z,16.2
2022-11-05T06:14:17.059Z,14
2022-11-05T06:16:19.253Z,15.9
2022-11-05T06:18:24.375Z,15.9
2022-11-05T06:20:26.397Z,16.4
2022-11-05T06:22:28.437Z,13.3
2022-11-05T06:24:30.434Z,16
2022-11-05T06:26:32.494Z,15.2
2022-11-05T06:28:34.560Z,15.6
2022-11-05T06:30:36.531Z,13.7
2022-11-05T06:32:41.790Z,15
2022-11-05T06:34:43.841Z,14.3
2022-11-05T06:36:45.848Z,13
2022-11-05T06:38:47.862Z,15.3
2022-11-05T06:40:49.949Z,16.3
2022-11-05T06:42:51.927Z,15.2
2022-11-05T06:44:53.960Z,14.8
2022-11-05T06:46:59.228Z,14.9
2022-11-05T06:49:01.254Z,15.5
2022-11-05T06:51:03.265Z,16.5
2022-11-05T06:53:05.299Z,17.3
2022-11-05T06:55:07.327Z,13.9
2022-11-05T06:57:09.342Z,15.3
2022-11-05T06:59:11.386Z,16.9
2022-11-05T07:01:16.841Z,14.7
2022-11-05T07:03:18.675Z,15.5
2022-11-05T07:05:20.697Z,15.4
2022-11-05T07:07:49.563Z,17.3
2022-11-05T07:09:51.606Z,17.2
2022-11-05T07:11:53.625Z,14.9
2022-11-05T07:13:58.916Z,14.9
2022-11-05T07:16:00.936Z,16.7
2022-11-05T07:18:03.013Z,16.8
2022-11-05T07:20:05.035Z,17.2
2022-11-05T07:22:07.037Z,18.2
2022-11-05T07:24:09.055Z,16.1
2022-11-05T07:26:11.114Z,17.6
2022-11-05T07:28:16.356Z,16
2022-11-05T07:30:18.417Z,16.8
2022-11-05T07:32:20.433Z,17.4
2022-11-05T07:34:22.480Z,16
2022-11-05T07:36:24.487Z,17.4
2022-11-05T07:40:28.583Z,17.1
2022-11-05T07:42:33.854Z,17.5
2022-11-05T07:44:35.898Z,16.7
2022-11-05T07:46:37.944Z,15.7
2022-11-05T07:48:39.961Z,15.8
2022-11-05T07:50:42.035Z,15.4
2022-11-05T07:52:44.078Z,14.3
2022-11-05T07:54:46.121Z,14.2
2022-11-05T07:56:51.429Z,15.4
2022-11-05T07:58:53.459Z,14.4
2022-11-05T08:00:55.683Z,14.7
2022-11-05T08:01:58.350Z,14.4
2022-11-05T08:04:00.205Z,13
2022-11-05T08:06:02.270Z,14
2022-11-05T08:08:04.331Z,13.7
2022-11-05T08:10:09.618Z,13.2
2022-11-05T08:12:11.696Z,13
2022-11-05T08:14:13.764Z,11.6
2022-11-05T08:16:15.826Z,12.5
2022-11-05T08:18:17.896Z,12.6
2022-11-05T08:20:19.973Z,11.8
2022-11-05T08:22:22.038Z,12.3
2022-11-05T08:24:27.367Z,12
2022-11-05T08:26:29.460Z,10.6
2022-11-05T08:28:31.556Z,12.4
2022-11-05T08:30:33.604Z,10.7
2022-11-05T08:32:35.681Z,10.8
2022-11-05T08:34:37.753Z,10.3
2022-11-05T08:36:39.842Z,10.9
2022-11-05T08:38:45.176Z,10.2
2022-11-05T08:40:47.249Z,10.2
2022-11-05T08:42:49.348Z,10.8
2022-11-05T08:44:51.430Z,9.6
2022-11-05T08:46:53.522Z,9.9
2022-11-05T08:48:55.601Z,9.7
2022-11-05T08:50:57.698Z,9.7
2022-11-05T08:53:03.016Z,9
2022-11-05T08:55:05.126Z,7.9
2022-11-05T08:57:07.202Z,9.4
2022-11-05T08:58:09.886Z,9.1
2022-11-05T09:00:11.989Z,8.7
2022-11-05T09:02:14.201Z,9.4
2022-11-05T09:06:21.495Z,9.3
2022-11-05T09:08:23.615Z,8.8
2022-11-05T09:10:25.735Z,9.6
2022-11-05T09:14:29.940Z,8.4
2022-11-05T09:18:34.166Z,8
2022-11-05T09:20:39.503Z,7.9
2022-11-05T09:22:43.412Z,7.3
2022-11-05T09:24:43.767Z,7.1
2022-11-05T09:26:45.837Z,6.4
2022-11-05T09:28:47.942Z,6.5
2022-11-05T09:30:50.136Z,7.8
2022-11-05T09:32:52.254Z,6.8
2022-11-05T09:34:57.606Z,6.7
2022-11-05T09:36:59.742Z,6.4
2022-11-05T09:39:01.875Z,7.2
2022-11-05T09:40:58.156Z,6
2022-11-05T09:43:00.281Z,6
2022-11-05T09:45:02.427Z,5.4
2022-11-05T09:47:04.536Z,6.2
2022-11-05T09:49:09.908Z,5.1
2022-11-05T09:51:12.030Z,5.2
2022-11-05T09:53:14.257Z,5.6
2022-11-05T09:54:16.899Z,5.4
2022-11-05T09:56:18.987Z,6.2
2022-11-05T09:58:24.512Z,6
2022-11-05T10:00:23.284Z,4.6
2022-11-05T10:02:28.735Z,5.2
2022-11-05T10:04:30.818Z,5
2022-11-05T10:06:32.974Z,5.6
2022-11-05T10:08:35.125Z,5.8
2022-11-05T10:10:40.899Z,4.9
2022-11-05T10:12:39.427Z,5.3
2022-11-05T10:14:41.559Z,5.9
2022-11-05T10:16:46.965Z,4.3
2022-11-05T10:18:49.121Z,5.8
2022-11-05T10:20:51.257Z,5.4
2022-11-05T10:22:53.295Z,4.6
2022-11-05T10:24:55.470Z,5.3
2022-11-05T10:26:57.621Z,5.5
2022-11-05T10:28:59.695Z,5.3
2022-11-05T10:31:05.120Z,4.6
2022-11-05T10:33:07.245Z,5.2
2022-11-05T10:35:09.313Z,4
2022-11-05T10:37:11.479Z,5
2022-11-05T10:39:13.627Z,5.7
2022-11-05T10:41:15.687Z,5.3
2022-11-05T10:51:55.995Z,5.6
2022-11-05T10:54:01.972Z,4.9
2022-11-05T10:56:00.148Z,5.3
2022-11-05T10:58:05.415Z,4.8
2022-11-05T11:00:07.601Z,4.5
2022-11-05T11:02:09.850Z,5.4
2022-11-05T11:04:11.845Z,5.2
2022-11-05T11:06:14.047Z,5.9
2022-11-05T11:08:16.205Z,5.3
2022-11-05T11:10:18.455Z,4.6
2022-11-05T11:12:23.782Z,4.6
2022-11-05T11:14:25.880Z,5.6
2022-11-05T11:16:28.051Z,5.2
2022-11-05T11:18:32.459Z,5.9
2022-11-05T11:20:32.390Z,4.9
2022-11-05T11:22:34.490Z,3.9
2022-11-05T11:26:42.071Z,5.3
2022-11-05T11:32:48.567Z,4.4
2022-11-05T11:34:50.770Z,4.5
2022-11-05T11:36:52.923Z,5.2
2022-11-05T11:38:55.084Z,5.1
2022-11-05T11:41:01.978Z,4.9
2022-11-05T11:43:03.996Z,4.2
2022-11-05T11:45:06.164Z,4.2
2022-11-05T11:48:10.858Z,3.5
2022-11-05T11:50:12.920Z,4.3
2022-11-05T11:52:15.013Z,3
2022-11-05T11:54:20.305Z,4.2
2022-11-05T11:56:22.388Z,4.2
2022-11-05T11:58:24.468Z,5.4
2022-11-05T12:00:26.633Z,3.9
2022-11-05T12:02:28.890Z,3.7
2022-11-05T12:04:31.009Z,4.7
2022-11-05T12:06:33.186Z,3.1
2022-11-05T12:08:42.878Z,3.7
2022-11-05T12:10:40.662Z,3.9
2022-11-05T12:12:42.838Z,4.4
2022-11-05T12:14:46.616Z,4.4
2022-11-05T12:16:47.087Z,3.4
2022-11-05T12:18:49.262Z,4.1
2022-11-05T12:20:56.931Z,3.3
2022-11-05T12:22:56.744Z,3.9
2022-11-05T12:24:58.938Z,4.4
2022-11-05T12:27:01.013Z,2.4
2022-11-05T12:29:18.391Z,2.9
2022-11-05T12:31:05.296Z,3.6
2022-11-05T12:33:07.546Z,4.1
2022-11-05T12:35:09.540Z,3.6
2022-11-05T12:37:14.875Z,3.1
2022-11-05T12:39:16.932Z,3.9
2022-11-05T12:41:19.112Z,3.1
2022-11-05T12:42:21.836Z,4.1
2022-11-05T12:48:34.205Z,3.7
2022-11-05T12:50:34.329Z,3.6
2022-11-05T12:52:36.413Z,4.5
2022-11-05T12:54:38.606Z,3.6
2022-11-05T12:56:40.775Z,3.6
2022-11-05T12:58:42.857Z,3.3
2022-11-05T13:04:52.513Z,9.8
2022-11-05T13:06:54.684Z,3.4
2022-11-05T13:08:56.758Z,5.1
2022-11-05T13:10:58.927Z,3.4
2022-11-05T13:15:03.105Z,5.6
2022-11-05T13:17:05.297Z,2.9
2022-11-05T13:21:12.576Z,3.7
2022-11-05T13:23:14.767Z,3.9
2022-11-05T13:27:18.896Z,4.3
2022-11-05T13:29:21.068Z,4.5
2022-11-05T13:31:23.153Z,4.1
2022-11-05T13:33:28.597Z,5.3
2022-11-05T13:35:30.780Z,5.1
2022-11-05T13:37:32.859Z,5.3
2022-11-05T13:38:35.547Z,4.9
2022-11-05T13:42:39.908Z,4.7
2022-11-05T13:44:41.992Z,4.9
2022-11-05T13:46:47.411Z,4.3
2022-11-05T13:48:49.481Z,5
2022-11-05T13:50:51.671Z,5
2022-11-05T13:56:52.349Z,4.9
2022-11-05T14:09:08.206Z,5.3
2022-11-05T14:11:10.388Z,7.7
2022-11-05T14:13:12.807Z,6.6
2022-11-05T14:15:18.893Z,5.9
2022-11-05T14:17:21.043Z,5.3
2022-11-05T14:19:23.228Z,5.2
2022-11-05T14:21:25.403Z,5.8
2022-11-05T14:23:27.557Z,5.9
2022-11-05T14:25:29.732Z,6.4
2022-11-05T14:27:31.904Z,8.4
2022-11-05T14:29:37.300Z,6.7
2022-11-05T14:32:07.365Z,5.5
2022-11-05T14:33:41.546Z,5.8
2022-11-05T14:36:10.440Z,6.9
2022-11-05T14:38:12.476Z,6.2
2022-11-05T14:40:14.626Z,5.8
2022-11-05T14:42:20.057Z,5.7
2022-11-05T14:44:22.194Z,6.4
2022-11-05T14:46:24.389Z,4.7
2022-11-05T14:48:26.552Z,5.8
2022-11-05T14:50:28.606Z,5.6
2022-11-05T14:52:30.678Z,6.7
2022-11-05T14:54:32.746Z,5.7
2022-11-05T14:56:38.153Z,6.5
2022-11-05T14:58:40.205Z,6.7
2022-11-05T15:00:42.277Z,7.4
2022-11-05T15:02:44.520Z,7.6
2022-11-05T15:04:46.597Z,6.2
2022-11-05T15:06:48.682Z,5.9
2022-11-05T15:08:50.867Z,6
2022-11-05T15:10:56.268Z,5.8
2022-11-05T15:12:58.447Z,5.6
2022-11-05T15:15:00.622Z,5.6
2022-11-05T15:17:02.770Z,5.6
2022-11-05T15:23:09.618Z,5.1
2022-11-05T15:27:16.833Z,5.2
2022-11-05T15:29:19.001Z,4.2
2022-11-05T15:30:21.708Z,5.5
2022-11-05T15:32:23.863Z,5.1
2022-11-05T15:34:25.907Z,5.4
2022-11-05T15:36:28.076Z,5.1
2022-11-05T15:38:33.389Z,5.1
2022-11-05T15:40:35.542Z,4.7
2022-11-05T15:42:37.700Z,5.1
2022-11-05T15:44:39.760Z,6
2022-11-05T15:46:41.918Z,4.9
2022-11-05T15:48:44.067Z,4.8
2022-11-05T15:50:46.128Z,5
2022-11-05T15:52:51.547Z,5.1
2022-11-05T15:54:53.688Z,4.8
2022-11-05T15:56:55.864Z,4.3
2022-11-05T15:58:58.018Z,3.6
2022-11-05T16:01:00.329Z,5.1
2022-11-05T16:03:02.352Z,4.6
2022-11-05T16:07:09.904Z,4.5
2022-11-05T16:13:16.360Z,4.2
2022-11-05T16:15:18.531Z,6.4
2022-11-05T16:17:20.671Z,5.2
2022-11-05T16:19:22.814Z,5
2022-11-05T16:21:28.219Z,3.9
2022-11-05T16:23:30.380Z,4.2
2022-11-05T16:25:32.539Z,5.6
2022-11-05T16:30:39.582Z,5
2022-11-05T16:36:49.281Z,4.7
2022-11-05T16:38:51.430Z,3.6
2022-11-05T16:40:53.502Z,4.2
2022-11-05T16:42:55.649Z,4
2022-11-05T16:44:57.731Z,3.6
2022-11-05T16:46:59.876Z,4.3
2022-11-05T16:49:05.174Z,5.3
2022-11-05T16:51:07.327Z,4.9
2022-11-05T16:53:09.506Z,3.9
2022-11-05T16:55:11.680Z,4
2022-11-05T16:57:13.838Z,3.7
2022-11-05T16:59:15.981Z,4.5
2022-11-05T17:01:18.122Z,4.4
2022-11-05T17:03:23.468Z,4.4
2022-11-05T17:05:25.645Z,4.5
2022-11-05T17:07:27.777Z,4.8
2022-11-05T17:09:29.956Z,3.7
2022-11-05T17:11:32.113Z,4.2
2022-11-05T17:13:34.276Z,5.7
2022-11-05T17:15:36.465Z,5.4
2022-11-05T17:17:41.747Z,5
2022-11-05T17:19:43.905Z,4.8
2022-11-05T17:21:46.056Z,5.8
2022-11-05T17:22:48.668Z,4.4
2022-11-05T17:24:50.842Z,4.1
2022-11-05T17:26:52.985Z,5.3
2022-11-05T17:28:55.164Z,4
2022-11-05T17:31:00.574Z,5.1
2022-11-05T17:33:04.410Z,4.7
2022-11-05T17:35:06.312Z,4.7
2022-11-05T17:37:08.482Z,4.7
2022-11-05T17:39:10.642Z,4.3
2022-11-05T17:43:15.274Z,4.3
2022-11-05T17:49:24.639Z,4
2022-11-05T17:51:26.786Z,4.2
2022-11-05T17:53:28.981Z,4
2022-11-05T17:55:31.129Z,4.8
2022-11-05T17:57:33.287Z,4.3
2022-11-05T17:59:38.585Z,5.1
2022-11-05T18:01:40.812Z,4.7
2022-11-05T18:03:42.912Z,4.8
2022-11-05T18:07:47.228Z,4
2022-11-05T18:09:49.398Z,4.4
2022-11-05T18:11:51.568Z,5.1
2022-11-05T18:13:56.955Z,4.7
2022-11-05T18:15:59.099Z,5.8
2022-11-05T18:18:01.280Z,4.5
2022-11-05T18:24:34.501Z,4.3
2022-11-05T18:34:48.429Z,4.6
2022-11-05T18:36:56.029Z,5.8
2022-11-05T18:38:52.755Z,5.6
2022-11-05T18:40:58.048Z,6.5
2022-11-05T18:45:02.283Z,5.7
2022-11-05T18:49:06.614Z,7
2022-11-05T18:55:16.327Z,4.9
2022-11-05T18:57:18.502Z,4.9
2022-11-05T18:59:36.821Z,4.8
2022-11-05T19:01:22.874Z,5.4
2022-11-05T19:05:29.699Z,4.6
2022-11-05T19:07:29.361Z,4.4
2022-11-05T19:11:36.878Z,4.8
2022-11-05T19:13:39.007Z,5.1
2022-11-05T19:14:41.708Z,4.3
2022-11-05T19:16:43.885Z,5.3
2022-11-05T19:18:46.026Z,4.9
2022-11-05T19:20:48.167Z,4.8
2022-11-05T19:22:53.468Z,4.6
2022-11-05T19:24:55.621Z,5
2022-11-05T19:26:57.795Z,4.9
2022-11-05T19:28:59.941Z,4.5
2022-11-05T19:31:02.109Z,4.7
2022-11-05T19:33:04.245Z,5.3
2022-11-05T19:35:06.396Z,4.8
2022-11-05T19:37:11.779Z,6.4
2022-11-05T19:39:13.967Z,4.5
2022-11-05T19:41:16.110Z,6.2
2022-11-05T19:43:18.175Z,6
2022-11-05T19:45:43.530Z,5
2022-11-05T19:47:22.475Z,4.9
2022-11-05T19:49:24.633Z,4.2
2022-11-05T19:51:30.040Z,5.6
2022-11-05T19:53:32.179Z,4.4
2022-11-05T19:55:34.308Z,5
2022-11-05T19:57:36.378Z,4.6
2022-11-05T19:59:38.677Z,4.8
2022-11-05T20:01:40.809Z,4
2022-11-05T20:03:42.859Z,5
2022-11-05T20:05:48.260Z,5
2022-11-05T20:07:53.018Z,4.8
2022-11-05T20:10:55.250Z,5.3
2022-11-05T20:12:57.404Z,3.9
2022-11-05T20:14:59.583Z,5.9
2022-11-05T20:17:01.620Z,4.2
2022-11-05T20:19:07.025Z,5.7
2022-11-05T20:21:09.193Z,4.4
2022-11-05T20:23:11.325Z,4.2
2022-11-05T20:25:13.484Z,4.7
2022-11-05T20:27:15.637Z,5.2
2022-11-05T20:29:17.799Z,5.4
2022-11-05T20:31:19.952Z,6.3
2022-11-05T20:33:25.348Z,5.5
2022-11-05T20:35:27.525Z,4.9
2022-11-05T20:37:29.673Z,4.7
2022-11-05T20:39:31.808Z,5.9
2022-11-05T20:41:33.981Z,5.2
2022-11-05T20:43:36.139Z,4.4
2022-11-05T20:45:38.286Z,5.2
2022-11-05T20:47:43.701Z,4.9
2022-11-05T20:49:45.836Z,5.5
2022-11-05T20:51:47.984Z,6.4
2022-11-05T20:53:50.152Z,5.2
2022-11-05T20:55:52.436Z,6.6
2022-11-05T20:57:54.498Z,5.1
2022-11-05T20:59:56.649Z,5.3
2022-11-05T21:02:02.158Z,4.7
2022-11-05T21:04:04.234Z,5.6
2022-11-05T21:06:06.355Z,4.1
2022-11-05T21:07:09.040Z,5.2
2022-11-05T21:09:11.200Z,5.4
2022-11-05T21:11:13.373Z,6
2022-11-05T21:13:15.525Z,5.2
2022-11-05T21:15:20.930Z,5.5
2022-11-05T21:17:23.102Z,5.3
2022-11-05T21:19:25.256Z,6.6
2022-11-05T21:21:27.421Z,4.4
2022-11-05T21:23:29.579Z,6.7
2022-11-05T21:25:31.738Z,5.2
2022-11-05T21:27:33.889Z,6.7
2022-11-05T21:29:39.292Z,6.1
2022-11-05T21:31:41.472Z,5.8
2022-11-05T21:33:43.629Z,5.7
2022-11-05T21:35:45.785Z,7
2022-11-05T21:37:47.927Z,7.7
2022-11-05T21:39:50.133Z,5.7
2022-11-05T21:43:57.626Z,6.1
2022-11-05T21:45:59.798Z,5.9
2022-11-05T21:52:06.287Z,5.6
2022-11-05T21:54:08.415Z,5.7
2022-11-05T21:56:10.574Z,6.2
2022-11-05T21:58:16.038Z,7.4
2022-11-05T22:00:18.111Z,5.6
2022-11-05T22:02:20.378Z,6.3
2022-11-05T22:04:49.159Z,5.7
2022-11-05T22:06:51.277Z,5.2
2022-11-05T22:08:53.422Z,6.2
2022-11-05T22:10:58.822Z,5.5
2022-11-05T22:13:00.980Z,6.1
2022-11-05T22:15:03.158Z,7.5
2022-11-05T22:17:05.308Z,6.2
2022-11-05T22:19:07.444Z,5.9
2022-11-05T22:25:17.144Z,6.6
2022-11-05T22:27:19.285Z,7.6
2022-11-05T22:31:23.585Z,5.6
2022-11-05T22:33:25.729Z,5.8
2022-11-05T22:35:27.866Z,6
2022-11-05T22:37:30.023Z,5.8
2022-11-05T22:39:35.400Z,7.3
2022-11-05T22:41:37.585Z,6.3
2022-11-05T22:43:39.716Z,6.8
2022-11-05T22:45:41.856Z,6.4
2022-11-05T22:47:44.016Z,6
2022-11-05T22:49:46.190Z,6.5
2022-11-05T22:51:48.328Z,7
2022-11-05T22:53:53.708Z,5.5
2022-11-05T22:55:55.840Z,6.9
2022-11-05T22:57:58.006Z,5.7
2022-11-05T22:59:00.711Z,6.2
2022-11-05T23:01:02.845Z,6.7
2022-11-05T23:03:05.172Z,4.9
2022-11-05T23:05:07.134Z,6.6
2022-11-05T23:09:14.700Z,6.1
2022-11-05T23:11:16.794Z,5.8
2022-11-05T23:13:18.963Z,6.4
2022-11-05T23:15:21.107Z,6.3
2022-11-05T23:17:23.244Z,6.5
2022-11-05T23:19:25.370Z,5.8
2022-11-05T23:21:30.767Z,5.9
2022-11-05T23:23:32.910Z,6.6
2022-11-05T23:25:36.594Z,6.2
2022-11-05T23:27:38.723Z,6.8
2022-11-05T23:29:40.882Z,4.7
2022-11-05T23:31:43.018Z,6.9
2022-11-05T23:33:45.146Z,5.9
2022-11-05T23:35:50.561Z,5.9
2022-11-05T23:37:52.696Z,5.7
2022-11-05T23:39:54.866Z,7.2
2022-11-05T23:41:57.018Z,6.1
2022-11-05T23:43:59.130Z,5.6
2022-11-05T23:46:01.304Z,6
2022-11-05T23:48:03.423Z,7.4
2022-11-05T23:50:08.853Z,5.2
2022-11-05T23:52:11.000Z,5.6
2022-11-05T23:54:13.130Z,5
2022-11-05T23:55:15.836Z,5.7
2022-11-05T23:57:17.950Z,5.2
2022-11-05T23:59:20.094Z,5.2
